Celebrity Solstice — 9HRJ9 — position and weather

sailwx.info

Track history (hours):
 
Tides and Currents Weather Stations Pressure Air Temp Water Temp Dewpoint Dewpoint Depression Visibility Wind Speed Wind Dir Waves Ship Positions

Celebrity Solstice

Last reported at 2016-Jun-25 23:00 UTC. Time now 2016-Jun-26 08:10 UTC.
Position N 51°24' W 129°30'.

Length 316 m; draft 9 m.

Type: Passenger vessel. MMSI: 249409000.

Wind from 240 at 16 knots

Waves 1.5 meters (5 feet), 11 second period

Barometer 1028.0 mb
Air temperature 15.0 ° C
Visibility: greater than 5.4 NM
Dewpoint 15.0 ° C
Water temperature 15.0 ° C

Date/timePositionNaut miles runAvg speedWind from/ knotsBaromVisibWave heightAir tempDewpointWater temp
2016-Jun-25 23:00N 51°24' W 129°30'15716.4 240 / 161028.0 5.4 1.515.015.015.0
2016-Jun-25 13:28N 49°24' W 126°51'1617.9
2016-Jun-25 12:34N 49°14' W 126°32'1818.0
2016-Jun-25 11:33N 49°03' W 126°11'1817.6
2016-Jun-25 10:34N 48°52' W 125°49'1817.9
2016-Jun-25 09:34N 48°41' W 125°28'6 9.9
2016-Jun-25 09:00N 48°36' W 125°24'1431.5 280 / 51024.0 2.2 1.514.014.015.0
2016-Jun-25 08:33N 48°32' W 125°04'1918.8
2016-Jun-25 07:34N 48°29' W 124°36'1323.2
2016-Jun-25 07:00N 48°24' W 124°18'613.3 280 / 101023.0 13.2 15.8
2016-Jun-25 06:33N 48°22' W 124°10'3416.4
2016-Jun-25 04:28N 48°09' W 123°22'1314.9
2016-Jun-25 03:33N 48°12' W 123°03'1514.9
2016-Jun-25 02:32N 48°08' W 122°41'1414.3
2016-Jun-25 01:33N 47°56' W 122°31'1616.4
2016-Jun-25 00:33N 47°40' W 122°27'3 0.8
2016-Jun-24 20:05N 47°38' W 122°23'4 3.5
2016-Jun-24 19:00N 47°36' W 122°18'4 1.4 190 / 71021.0 18.2 15.5
2016-Jun-24 16:20N 47°38' W 122°23'0 0.0
2016-Jun-24 13:33N 47°38' W 122°23'1 0.5
2016-Jun-24 12:33N 47°37' W 122°23'9 9.4
2016-Jun-24 11:33N 47°46' W 122°27'1515.2
2016-Jun-24 10:33N 48°00' W 122°37'1414.4
2016-Jun-24 09:33N 48°11' W 122°51'1515.5
2016-Jun-24 08:33N 48°11' W 123°14'1211.7
2016-Jun-24 07:33N 48°16' W 123°30'10 2.3
2016-Jun-24 03:10N 48°25' W 123°23'0 0.0
2016-Jun-24 00:04N 48°25' W 123°23'0 0.0
2016-Jun-23 23:33N 48°25' W 123°23'1312.5
2016-Jun-23 22:33N 48°14' W 123°31'1817.7
2016-Jun-23 21:32N 48°14' W 123°58'1717.8
2016-Jun-23 20:33N 48°22' W 124°22'1616.5
2016-Jun-23 19:33N 48°28' W 124°45'1717.1
2016-Jun-23 18:33N 48°30' W 125°10'916.0
2016-Jun-23 18:00N 48°30' W 125°24'1022.2 300 / 131013.0 14.3 16.1
2016-Jun-23 17:33N 48°37' W 125°34'1817.6
2016-Jun-23 16:33N 48°46' W 125°56'711.5
2016-Jun-23 16:00N 48°48' W 126°06'1227.8 280 / 141015.0 13.9 15.8
2016-Jun-23 15:33N 48°57' W 126°17'1818.3
2016-Jun-23 14:33N 49°09' W 126°39'1918.6
2016-Jun-23 13:33N 49°21' W 127°02'9216.6
2016-Jun-23 08:00N 50°18' W 128°54'2929.1 350 / 161018.0 5.4 1.013.013.015.0
2016-Jun-23 07:00N 50°36' W 129°30'43719.0 340 / 91016.0 12.3 16.0
2016-Jun-22 08:00N 57°12' W 134°42'7926.2 080 / 41017.0 5.4 12.012.015.0
2016-Jun-22 05:00N 58°30' W 135°00'6 0.3 160 / 71016.0 14.7 16.1
2016-Jun-21 10:00N 58°36' W 135°00'122 4.9 320 / 61023.0 2.2 12.012.016.0
2016-Jun-20 09:00N 56°36' W 134°24'156156.0 180 / 221030.0 5.4 1.011.011.014.0
2016-Jun-20 08:00N 59°12' W 134°18'192192.2 200 / 221029.0 9.8 14.1
2016-Jun-20 07:00N 56°00' W 134°00'91 6.5 240 / 171027.0 10.0 14.3
2016-Jun-19 17:00N 55°18' W 131°36'35 5.8 130 / 71028.0 14.1 14.7
2016-Jun-19 11:00N 54°48' W 131°06'4816.0 270 / 51023.0 5.4 0.514.014.016.0
2016-Jun-19 08:00N 54°00' W 131°00'3115.4 280 / 301023.0 11.4 14.7
2016-Jun-19 06:00N 53°30' W 130°48'14718.4 320 / 191022.0 12.4 14.5
2016-Jun-18 22:00N 51°12' W 129°24'4815.9 270 / 141020.0 5.4 1.015.015.016.0
2016-Jun-18 19:00N 50°30' W 128°48'8715.9 350 / 131020.0 12.3 14.5
2016-Jun-18 13:32N 49°31' W 127°09'1717.5
2016-Jun-18 12:33N 49°20' W 126°49'1918.6
2016-Jun-18 11:33N 49°10' W 126°24'1818.1
2016-Jun-18 10:33N 48°59' W 126°03'1717.3
2016-Jun-18 09:33N 48°48' W 125°42'2035.4
2016-Jun-18 09:00N 48°36' W 125°18'2 4.4 280 / 131023.0 2.2 0.513.013.015.0
2016-Jun-18 08:33N 48°37' W 125°21'1717.3
2016-Jun-18 07:33N 48°31' W 124°56'1526.6
2016-Jun-18 07:00N 48°24' W 124°36'511.6 330 / 141019.0 11.5 14.5
2016-Jun-18 06:33N 48°27' W 124°30'1818.0
2016-Jun-18 05:33N 48°20' W 124°05'1424.7
2016-Jun-18 05:00N 48°12' W 123°48'816.2 300 / 151019.0 11.9 14.6
2016-Jun-18 04:31N 48°16' W 123°38'1515.3
2016-Jun-18 03:33N 48°09' W 123°19'1717.3
2016-Jun-18 02:33N 48°12' W 122°53'1717.2
2016-Jun-18 01:33N 47°59' W 122°36'1717.4
2016-Jun-18 00:33N 47°43' W 122°27'9 1.6
2016-Jun-17 19:00N 47°36' W 122°18'4 1.0 340 / 131021.0 15.3 14.5
2016-Jun-17 15:07N 47°38' W 122°23'0 0.0
2016-Jun-17 14:30N 47°38' W 122°23'0 0.0
2016-Jun-17 13:33N 47°38' W 122°23'0 0.3
2016-Jun-17 12:33N 47°37' W 122°23'9 8.8
2016-Jun-17 11:33N 47°46' W 122°27'1414.4
2016-Jun-17 10:33N 47°59' W 122°36'1414.3
2016-Jun-17 09:33N 48°11' W 122°48'1716.4
2016-Jun-17 08:33N 48°11' W 123°13'1212.0
2016-Jun-17 07:33N 48°16' W 123°29'10 1.8
2016-Jun-17 02:06N 48°25' W 123°23'0 0.0
2016-Jun-16 23:33N 48°25' W 123°23'10 9.6
2016-Jun-16 22:34N 48°16' W 123°27'712.7
2016-Jun-16 22:00N 48°12' W 123°36'1123.8 230 / 141021.0 15.015.015.0
2016-Jun-16 21:33N 48°14' W 123°52'2 3.9
2016-Jun-16 21:00N 48°12' W 123°54'1636.9 300 / 111021.0 15.015.015.0
2016-Jun-16 20:34N 48°20' W 124°15'1717.4
2016-Jun-16 19:34N 48°27' W 124°39'1919.2
2016-Jun-16 18:34N 48°29' W 125°08'1818.2
2016-Jun-16 17:34N 48°37' W 125°32'1817.8
2016-Jun-16 16:34N 48°46' W 125°55'712.8
2016-Jun-16 16:00N 48°48' W 126°06'1125.8 110 / 71017.0 12.2 15.5
2016-Jun-16 15:34N 48°57' W 126°16'1817.6
2016-Jun-16 14:34N 49°08' W 126°37'1817.8
2016-Jun-16 13:33N 49°17' W 127°00'7616.6
2016-Jun-16 09:00N 50°06' W 128°30'4622.8 300 / 71017.0 1.014.014.014.0
2016-Jun-16 07:00N 50°36' W 129°24'1616.4 290 / 71016.0 11.6 14.6
2016-Jun-16 06:00N 50°42' W 129°48'14320.4 290 / 71014.0 11.5 14.6
2016-Jun-15 23:00N 52°30' W 132°18'   280 / 131016.0 1.013.013.013.0
Track history (hours):
 
Tides and Currents Weather Stations Pressure Air Temp Water Temp Dewpoint Dewpoint Depression Visibility Wind Speed Wind Dir Waves Ship Positions

Celebrity Solstice

Last reported at 2016-Jun-25 23:00 UTC. Time now 2016-Jun-26 08:10 UTC.
Position N 51°24' W 129°30'.

Length 316 m; draft 9 m.

Type: Passenger vessel. MMSI: 249409000.

Wind from 240 at 16 knots

Waves 1.5 meters (5 feet), 11 second period

Barometer 1028.0 mb
Air temperature 15.0 ° C
Visibility: greater than 5.4 NM
Dewpoint 15.0 ° C
Water temperature 15.0 ° C

Date/timePositionNaut miles runAvg speedWind from/ knotsBaromVisibWave heightAir tempDewpointWater temp
2016-Jun-25 23:00N 51°24' W 129°30'15716.4 240 / 161028.0 5.4 1.515.015.015.0
2016-Jun-25 13:28N 49°24' W 126°51'1617.9
2016-Jun-25 12:34N 49°14' W 126°32'1818.0
2016-Jun-25 11:33N 49°03' W 126°11'1817.6
2016-Jun-25 10:34N 48°52' W 125°49'1817.9
2016-Jun-25 09:34N 48°41' W 125°28'6 9.9
2016-Jun-25 09:00N 48°36' W 125°24'1431.5 280 / 51024.0 2.2 1.514.014.015.0
2016-Jun-25 08:33N 48°32' W 125°04'1918.8
2016-Jun-25 07:34N 48°29' W 124°36'1323.2
2016-Jun-25 07:00N 48°24' W 124°18'613.3 280 / 101023.0 13.2 15.8
2016-Jun-25 06:33N 48°22' W 124°10'3416.4
2016-Jun-25 04:28N 48°09' W 123°22'1314.9
2016-Jun-25 03:33N 48°12' W 123°03'1514.9
2016-Jun-25 02:32N 48°08' W 122°41'1414.3
2016-Jun-25 01:33N 47°56' W 122°31'1616.4
2016-Jun-25 00:33N 47°40' W 122°27'3 0.8
2016-Jun-24 20:05N 47°38' W 122°23'4 3.5
2016-Jun-24 19:00N 47°36' W 122°18'4 1.4 190 / 71021.0 18.2 15.5
2016-Jun-24 16:20N 47°38' W 122°23'0 0.0
2016-Jun-24 13:33N 47°38' W 122°23'1 0.5
2016-Jun-24 12:33N 47°37' W 122°23'9 9.4
2016-Jun-24 11:33N 47°46' W 122°27'1515.2
2016-Jun-24 10:33N 48°00' W 122°37'1414.4
2016-Jun-24 09:33N 48°11' W 122°51'1515.5
2016-Jun-24 08:33N 48°11' W 123°14'1211.7
2016-Jun-24 07:33N 48°16' W 123°30'10 2.3
2016-Jun-24 03:10N 48°25' W 123°23'0 0.0
2016-Jun-24 00:04N 48°25' W 123°23'0 0.0
2016-Jun-23 23:33N 48°25' W 123°23'1312.5
2016-Jun-23 22:33N 48°14' W 123°31'1817.7
2016-Jun-23 21:32N 48°14' W 123°58'1717.8
2016-Jun-23 20:33N 48°22' W 124°22'1616.5
2016-Jun-23 19:33N 48°28' W 124°45'1717.1
2016-Jun-23 18:33N 48°30' W 125°10'916.0
2016-Jun-23 18:00N 48°30' W 125°24'1022.2 300 / 131013.0 14.3 16.1
2016-Jun-23 17:33N 48°37' W 125°34'1817.6
2016-Jun-23 16:33N 48°46' W 125°56'711.5
2016-Jun-23 16:00N 48°48' W 126°06'1227.8 280 / 141015.0 13.9 15.8
2016-Jun-23 15:33N 48°57' W 126°17'1818.3
2016-Jun-23 14:33N 49°09' W 126°39'1918.6
2016-Jun-23 13:33N 49°21' W 127°02'9216.6
2016-Jun-23 08:00N 50°18' W 128°54'2929.1 350 / 161018.0 5.4 1.013.013.015.0
2016-Jun-23 07:00N 50°36' W 129°30'43719.0 340 / 91016.0 12.3 16.0
2016-Jun-22 08:00N 57°12' W 134°42'7926.2 080 / 41017.0 5.4 12.012.015.0
2016-Jun-22 05:00N 58°30' W 135°00'6 0.3 160 / 71016.0 14.7 16.1
2016-Jun-21 10:00N 58°36' W 135°00'122 4.9 320 / 61023.0 2.2 12.012.016.0
2016-Jun-20 09:00N 56°36' W 134°24'156156.0 180 / 221030.0 5.4 1.011.011.014.0
2016-Jun-20 08:00N 59°12' W 134°18'192192.2 200 / 221029.0 9.8 14.1
2016-Jun-20 07:00N 56°00' W 134°00'91 6.5 240 / 171027.0 10.0 14.3
2016-Jun-19 17:00N 55°18' W 131°36'35 5.8 130 / 71028.0 14.1 14.7
2016-Jun-19 11:00N 54°48' W 131°06'4816.0 270 / 51023.0 5.4 0.514.014.016.0
2016-Jun-19 08:00N 54°00' W 131°00'3115.4 280 / 301023.0 11.4 14.7
2016-Jun-19 06:00N 53°30' W 130°48'14718.4 320 / 191022.0 12.4 14.5
2016-Jun-18 22:00N 51°12' W 129°24'4815.9 270 / 141020.0 5.4 1.015.015.016.0
2016-Jun-18 19:00N 50°30' W 128°48'8715.9 350 / 131020.0 12.3 14.5
2016-Jun-18 13:32N 49°31' W 127°09'1717.5
2016-Jun-18 12:33N 49°20' W 126°49'1918.6
2016-Jun-18 11:33N 49°10' W 126°24'1818.1
2016-Jun-18 10:33N 48°59' W 126°03'1717.3
2016-Jun-18 09:33N 48°48' W 125°42'2035.4
2016-Jun-18 09:00N 48°36' W 125°18'2 4.4 280 / 131023.0 2.2 0.513.013.015.0
2016-Jun-18 08:33N 48°37' W 125°21'1717.3
2016-Jun-18 07:33N 48°31' W 124°56'1526.6
2016-Jun-18 07:00N 48°24' W 124°36'511.6 330 / 141019.0 11.5 14.5
2016-Jun-18 06:33N 48°27' W 124°30'1818.0
2016-Jun-18 05:33N 48°20' W 124°05'1424.7
2016-Jun-18 05:00N 48°12' W 123°48'816.2 300 / 151019.0 11.9 14.6
2016-Jun-18 04:31N 48°16' W 123°38'1515.3
2016-Jun-18 03:33N 48°09' W 123°19'1717.3
2016-Jun-18 02:33N 48°12' W 122°53'1717.2
2016-Jun-18 01:33N 47°59' W 122°36'1717.4
2016-Jun-18 00:33N 47°43' W 122°27'9 1.6
2016-Jun-17 19:00N 47°36' W 122°18'4 1.0 340 / 131021.0 15.3 14.5
2016-Jun-17 15:07N 47°38' W 122°23'0 0.0
2016-Jun-17 14:30N 47°38' W 122°23'0 0.0
2016-Jun-17 13:33N 47°38' W 122°23'0 0.3
2016-Jun-17 12:33N 47°37' W 122°23'9 8.8
2016-Jun-17 11:33N 47°46' W 122°27'1414.4
2016-Jun-17 10:33N 47°59' W 122°36'1414.3
2016-Jun-17 09:33N 48°11' W 122°48'1716.4
2016-Jun-17 08:33N 48°11' W 123°13'1212.0
2016-Jun-17 07:33N 48°16' W 123°29'10 1.8
2016-Jun-17 02:06N 48°25' W 123°23'0 0.0
2016-Jun-16 23:33N 48°25' W 123°23'10 9.6
2016-Jun-16 22:34N 48°16' W 123°27'712.7
2016-Jun-16 22:00N 48°12' W 123°36'1123.8 230 / 141021.0 15.015.015.0
2016-Jun-16 21:33N 48°14' W 123°52'2 3.9
2016-Jun-16 21:00N 48°12' W 123°54'1636.9 300 / 111021.0 15.015.015.0
2016-Jun-16 20:34N 48°20' W 124°15'1717.4
2016-Jun-16 19:34N 48°27' W 124°39'1919.2
2016-Jun-16 18:34N 48°29' W 125°08'1818.2
2016-Jun-16 17:34N 48°37' W 125°32'1817.8
2016-Jun-16 16:34N 48°46' W 125°55'712.8
2016-Jun-16 16:00N 48°48' W 126°06'1125.8 110 / 71017.0 12.2 15.5
2016-Jun-16 15:34N 48°57' W 126°16'1817.6
2016-Jun-16 14:34N 49°08' W 126°37'1817.8
2016-Jun-16 13:33N 49°17' W 127°00'7616.6
2016-Jun-16 09:00N 50°06' W 128°30'4622.8 300 / 71017.0 1.014.014.014.0
2016-Jun-16 07:00N 50°36' W 129°24'1616.4 290 / 71016.0 11.6 14.6
2016-Jun-16 06:00N 50°42' W 129°48'14320.4 290 / 71014.0 11.5 14.6
2016-Jun-15 23:00N 52°30' W 132°18'   280 / 131016.0 1.013.013.013.0

Dump ship's entire track history